sensor_id;sensor_type;location;lat;lon;timestamp;P1;durP1;ratioP1;P2;durP2;ratioP2
68455;SDS011;55437;55.046;38.838;2023-09-12T00:01:05;30.98;;;13.98;;
68455;SDS011;55437;55.046;38.838;2023-09-12T00:03:32;37.65;;;15.05;;
68455;SDS011;55437;55.046;38.838;2023-09-12T00:06:00;31.23;;;13.82;;
68455;SDS011;55437;55.046;38.838;2023-09-12T00:08:27;29.88;;;13.65;;
68455;SDS011;55437;55.046;38.838;2023-09-12T00:11:12;27.38;;;13.60;;
68455;SDS011;55437;55.046;38.838;2023-09-12T00:13:39;33.30;;;14.07;;
68455;SDS011;55437;55.046;38.838;2023-09-12T00:16:25;32.60;;;14.40;;
68455;SDS011;55437;55.046;38.838;2023-09-12T00:18:51;27.23;;;14.02;;
68455;SDS011;55437;55.046;38.838;2023-09-12T00:21:17;29.00;;;14.23;;
68455;SDS011;55437;55.046;38.838;2023-09-12T00:23:43;28.02;;;14.02;;
68455;SDS011;55437;55.046;38.838;2023-09-12T00:26:09;23.73;;;12.48;;
68455;SDS011;55437;55.046;38.838;2023-09-12T00:28:35;29.65;;;13.48;;
68455;SDS011;55437;55.046;38.838;2023-09-12T00:31:02;34.78;;;13.95;;
68455;SDS011;55437;55.046;38.838;2023-09-12T00:33:29;31.00;;;12.93;;
68455;SDS011;55437;55.046;38.838;2023-09-12T00:35:55;28.05;;;12.57;;
68455;SDS011;55437;55.046;38.838;2023-09-12T00:38:20;24.30;;;12.20;;
68455;SDS011;55437;55.046;38.838;2023-09-12T00:40:46;28.02;;;13.27;;
68455;SDS011;55437;55.046;38.838;2023-09-12T00:43:13;25.98;;;14.48;;
68455;SDS011;55437;55.046;38.838;2023-09-12T00:45:38;26.67;;;12.88;;
68455;SDS011;55437;55.046;38.838;2023-09-12T00:48:04;25.90;;;12.10;;
68455;SDS011;55437;55.046;38.838;2023-09-12T00:50:33;25.23;;;12.88;;
68455;SDS011;55437;55.046;38.838;2023-09-12T00:53:00;24.17;;;11.50;;
68455;SDS011;55437;55.046;38.838;2023-09-12T00:55:28;24.63;;;12.02;;
68455;SDS011;55437;55.046;38.838;2023-09-12T00:57:57;25.08;;;12.05;;
68455;SDS011;55437;55.046;38.838;2023-09-12T01:00:23;22.33;;;11.15;;
68455;SDS011;55437;55.046;38.838;2023-09-12T01:02:50;21.20;;;11.30;;
68455;SDS011;55437;55.046;38.838;2023-09-12T01:05:18;22.85;;;11.20;;
68455;SDS011;55437;55.046;38.838;2023-09-12T01:07:44;24.77;;;11.98;;
68455;SDS011;55437;55.046;38.838;2023-09-12T01:10:11;26.65;;;11.85;;
68455;SDS011;55437;55.046;38.838;2023-09-12T01:12:37;25.38;;;11.52;;
68455;SDS011;55437;55.046;38.838;2023-09-12T01:15:04;27.75;;;12.43;;
68455;SDS011;55437;55.046;38.838;2023-09-12T01:17:34;25.55;;;12.02;;
68455;SDS011;55437;55.046;38.838;2023-09-12T01:20:00;28.75;;;12.38;;
68455;SDS011;55437;55.046;38.838;2023-09-12T01:27:52;23.88;;;12.18;;
68455;SDS011;55437;55.046;38.838;2023-09-12T01:30:23;26.15;;;11.68;;
68455;SDS011;55437;55.046;38.838;2023-09-12T01:35:19;21.30;;;10.93;;
68455;SDS011;55437;55.046;38.838;2023-09-12T01:37:44;21.88;;;11.95;;
68455;SDS011;55437;55.046;38.838;2023-09-12T01:40:11;24.25;;;11.55;;
68455;SDS011;55437;55.046;38.838;2023-09-12T01:42:40;20.83;;;12.15;;
68455;SDS011;55437;55.046;38.838;2023-09-12T01:45:10;23.38;;;11.23;;
68455;SDS011;55437;55.046;38.838;2023-09-12T01:47:39;19.95;;;10.18;;
68455;SDS011;55437;55.046;38.838;2023-09-12T01:50:08;21.70;;;10.75;;
68455;SDS011;55437;55.046;38.838;2023-09-12T01:52:35;22.42;;;10.90;;
68455;SDS011;55437;55.046;38.838;2023-09-12T01:55:02;79.03;;;15.68;;
68455;SDS011;55437;55.046;38.838;2023-09-12T01:57:30;146.88;;;18.45;;
68455;SDS011;55437;55.046;38.838;2023-09-12T01:59:57;283.50;;;23.35;;
68455;SDS011;55437;55.046;38.838;2023-09-12T02:02:23;189.70;;;19.08;;
68455;SDS011;55437;55.046;38.838;2023-09-12T02:04:54;77.82;;;15.55;;
68455;SDS011;55437;55.046;38.838;2023-09-12T02:07:37;70.82;;;15.77;;
68455;SDS011;55437;55.046;38.838;2023-09-12T02:10:05;33.00;;;13.60;;
68455;SDS011;55437;55.046;38.838;2023-09-12T02:12:31;29.15;;;12.65;;
68455;SDS011;55437;55.046;38.838;2023-09-12T02:14:58;26.77;;;13.73;;
68455;SDS011;55437;55.046;38.838;2023-09-12T02:17:24;26.23;;;12.20;;
68455;SDS011;55437;55.046;38.838;2023-09-12T02:19:51;26.15;;;12.40;;
68455;SDS011;55437;55.046;38.838;2023-09-12T02:22:17;28.85;;;13.45;;
68455;SDS011;55437;55.046;38.838;2023-09-12T02:24:42;23.60;;;11.40;;
68455;SDS011;55437;55.046;38.838;2023-09-12T02:27:09;24.38;;;12.00;;
68455;SDS011;55437;55.046;38.838;2023-09-12T02:29:35;27.20;;;13.45;;
68455;SDS011;55437;55.046;38.838;2023-09-12T02:32:01;24.10;;;12.55;;
68455;SDS011;55437;55.046;38.838;2023-09-12T02:34:27;31.40;;;12.13;;
68455;SDS011;55437;55.046;38.838;2023-09-12T02:36:53;21.90;;;10.80;;
68455;SDS011;55437;55.046;38.838;2023-09-12T02:39:19;24.88;;;11.65;;
68455;SDS011;55437;55.046;38.838;2023-09-12T02:41:45;25.52;;;12.48;;
68455;SDS011;55437;55.046;38.838;2023-09-12T02:44:11;35.67;;;13.32;;
68455;SDS011;55437;55.046;38.838;2023-09-12T02:46:37;26.00;;;12.10;;
68455;SDS011;55437;55.046;38.838;2023-09-12T02:49:03;52.70;;;13.57;;
68455;SDS011;55437;55.046;38.838;2023-09-12T02:51:29;47.80;;;14.18;;
68455;SDS011;55437;55.046;38.838;2023-09-12T02:53:58;40.08;;;13.13;;
68455;SDS011;55437;55.046;38.838;2023-09-12T02:56:24;156.80;;;21.02;;
68455;SDS011;55437;55.046;38.838;2023-09-12T02:58:50;70.05;;;15.75;;
68455;SDS011;55437;55.046;38.838;2023-09-12T03:01:17;133.73;;;18.65;;
68455;SDS011;55437;55.046;38.838;2023-09-12T03:03:48;85.97;;;16.42;;
68455;SDS011;55437;55.046;38.838;2023-09-12T03:06:15;39.55;;;13.02;;
68455;SDS011;55437;55.046;38.838;2023-09-12T03:08:41;43.90;;;14.48;;
68455;SDS011;55437;55.046;38.838;2023-09-12T03:11:09;31.83;;;12.15;;
68455;SDS011;55437;55.046;38.838;2023-09-12T03:13:39;31.35;;;13.13;;
68455;SDS011;55437;55.046;38.838;2023-09-12T03:16:10;34.75;;;13.00;;
68455;SDS011;55437;55.046;38.838;2023-09-12T03:18:37;31.15;;;13.35;;
68455;SDS011;55437;55.046;38.838;2023-09-12T03:21:02;30.92;;;13.23;;
68455;SDS011;55437;55.046;38.838;2023-09-12T03:23:28;32.83;;;13.20;;
68455;SDS011;55437;55.046;38.838;2023-09-12T03:25:54;36.88;;;13.32;;
68455;SDS011;55437;55.046;38.838;2023-09-12T03:28:21;56.58;;;14.50;;
68455;SDS011;55437;55.046;38.838;2023-09-12T03:30:46;52.72;;;13.57;;
68455;SDS011;55437;55.046;38.838;2023-09-12T03:33:12;68.50;;;14.60;;
68455;SDS011;55437;55.046;38.838;2023-09-12T03:35:38;73.60;;;15.50;;
68455;SDS011;55437;55.046;38.838;2023-09-12T03:38:04;64.93;;;16.15;;
68455;SDS011;55437;55.046;38.838;2023-09-12T03:40:31;118.60;;;15.98;;
68455;SDS011;55437;55.046;38.838;2023-09-12T03:42:57;45.78;;;14.90;;
68455;SDS011;55437;55.046;38.838;2023-09-12T03:45:23;48.47;;;14.00;;
68455;SDS011;55437;55.046;38.838;2023-09-12T03:47:51;148.40;;;19.08;;
68455;SDS011;55437;55.046;38.838;2023-09-12T03:50:17;58.10;;;13.30;;
68455;SDS011;55437;55.046;38.838;2023-09-12T03:52:44;125.00;;;19.45;;
68455;SDS011;55437;55.046;38.838;2023-09-12T03:55:10;52.90;;;12.70;;
68455;SDS011;55437;55.046;38.838;2023-09-12T03:57:36;98.47;;;15.77;;
68455;SDS011;55437;55.046;38.838;2023-09-12T04:00:04;81.80;;;16.13;;
68455;SDS011;55437;55.046;38.838;2023-09-12T04:02:39;132.68;;;18.33;;
68455;SDS011;55437;55.046;38.838;2023-09-12T04:05:06;57.00;;;14.25;;
68455;SDS011;55437;55.046;38.838;2023-09-12T04:07:33;77.13;;;13.70;;
68455;SDS011;55437;55.046;38.838;2023-09-12T04:09:58;103.50;;;14.73;;
68455;SDS011;55437;55.046;38.838;2023-09-12T04:12:24;218.25;;;19.85;;
68455;SDS011;55437;55.046;38.838;2023-09-12T04:14:52;70.20;;;14.77;;
68455;SDS011;55437;55.046;38.838;2023-09-12T04:17:18;69.28;;;13.43;;
68455;SDS011;55437;55.046;38.838;2023-09-12T04:19:44;31.52;;;13.32;;
68455;SDS011;55437;55.046;38.838;2023-09-12T04:22:09;43.92;;;15.80;;
68455;SDS011;55437;55.046;38.838;2023-09-12T04:24:35;37.92;;;15.27;;
68455;SDS011;55437;55.046;38.838;2023-09-12T04:27:01;33.88;;;14.38;;
68455;SDS011;55437;55.046;38.838;2023-09-12T04:29:28;34.90;;;14.50;;
68455;SDS011;55437;55.046;38.838;2023-09-12T04:31:54;30.20;;;12.75;;
68455;SDS011;55437;55.046;38.838;2023-09-12T04:34:25;27.58;;;13.80;;
68455;SDS011;55437;55.046;38.838;2023-09-12T04:36:52;29.20;;;14.02;;
68455;SDS011;55437;55.046;38.838;2023-09-12T04:39:19;36.20;;;15.82;;
68455;SDS011;55437;55.046;38.838;2023-09-12T04:41:45;34.60;;;13.98;;
68455;SDS011;55437;55.046;38.838;2023-09-12T04:44:11;39.45;;;15.52;;
68455;SDS011;55437;55.046;38.838;2023-09-12T04:46:38;32.15;;;14.27;;
68455;SDS011;55437;55.046;38.838;2023-09-12T04:49:04;34.80;;;13.80;;
68455;SDS011;55437;55.046;38.838;2023-09-12T04:51:30;37.55;;;16.25;;
68455;SDS011;55437;55.046;38.838;2023-09-12T04:53:55;36.83;;;15.32;;
68455;SDS011;55437;55.046;38.838;2023-09-12T04:56:22;35.35;;;14.85;;
68455;SDS011;55437;55.046;38.838;2023-09-12T04:58:51;32.80;;;14.32;;
68455;SDS011;55437;55.046;38.838;2023-09-12T05:01:17;38.35;;;15.13;;
68455;SDS011;55437;55.046;38.838;2023-09-12T05:03:43;38.33;;;14.65;;
68455;SDS011;55437;55.046;38.838;2023-09-12T05:06:10;36.40;;;14.13;;
68455;SDS011;55437;55.046;38.838;2023-09-12T05:08:37;36.78;;;16.55;;
68455;SDS011;55437;55.046;38.838;2023-09-12T05:11:03;34.63;;;13.93;;
68455;SDS011;55437;55.046;38.838;2023-09-12T05:13:29;33.13;;;13.57;;
68455;SDS011;55437;55.046;38.838;2023-09-12T05:15:55;28.67;;;12.93;;
68455;SDS011;55437;55.046;38.838;2023-09-12T05:18:23;28.35;;;13.38;;
68455;SDS011;55437;55.046;38.838;2023-09-12T05:20:49;32.28;;;13.48;;
68455;SDS011;55437;55.046;38.838;2023-09-12T05:23:15;34.78;;;14.70;;
68455;SDS011;55437;55.046;38.838;2023-09-12T05:25:41;29.48;;;13.55;;
68455;SDS011;55437;55.046;38.838;2023-09-12T05:28:07;30.48;;;13.98;;
68455;SDS011;55437;55.046;38.838;2023-09-12T05:30:33;35.53;;;12.85;;
68455;SDS011;55437;55.046;38.838;2023-09-12T05:33:01;32.17;;;13.55;;
68455;SDS011;55437;55.046;38.838;2023-09-12T05:35:27;27.77;;;14.02;;
68455;SDS011;55437;55.046;38.838;2023-09-12T05:37:53;30.77;;;12.27;;
68455;SDS011;55437;55.046;38.838;2023-09-12T05:40:38;29.48;;;11.48;;
68455;SDS011;55437;55.046;38.838;2023-09-12T05:43:04;26.75;;;11.88;;
68455;SDS011;55437;55.046;38.838;2023-09-12T05:45:30;31.00;;;13.07;;
68455;SDS011;55437;55.046;38.838;2023-09-12T05:47:59;37.40;;;12.80;;
68455;SDS011;55437;55.046;38.838;2023-09-12T05:50:26;36.83;;;12.40;;
68455;SDS011;55437;55.046;38.838;2023-09-12T05:52:52;33.75;;;12.38;;
68455;SDS011;55437;55.046;38.838;2023-09-12T05:55:19;29.15;;;12.05;;
68455;SDS011;55437;55.046;38.838;2023-09-12T05:57:46;32.20;;;11.63;;
68455;SDS011;55437;55.046;38.838;2023-09-12T06:00:13;30.90;;;12.25;;
68455;SDS011;55437;55.046;38.838;2023-09-12T06:02:42;37.85;;;12.43;;
68455;SDS011;55437;55.046;38.838;2023-09-12T06:05:14;31.55;;;11.70;;
68455;SDS011;55437;55.046;38.838;2023-09-12T06:07:41;29.98;;;11.85;;
68455;SDS011;55437;55.046;38.838;2023-09-12T06:10:07;29.92;;;11.18;;
68455;SDS011;55437;55.046;38.838;2023-09-12T06:12:34;32.75;;;11.70;;
68455;SDS011;55437;55.046;38.838;2023-09-12T06:15:03;32.38;;;11.38;;
68455;SDS011;55437;55.046;38.838;2023-09-12T06:17:48;29.75;;;11.52;;
68455;SDS011;55437;55.046;38.838;2023-09-12T06:20:13;27.67;;;11.48;;
68455;SDS011;55437;55.046;38.838;2023-09-12T06:22:39;27.17;;;10.52;;
68455;SDS011;55437;55.046;38.838;2023-09-12T06:25:06;25.48;;;11.32;;
68455;SDS011;55437;55.046;38.838;2023-09-12T06:27:33;26.95;;;10.57;;
68455;SDS011;55437;55.046;38.838;2023-09-12T06:29:59;30.38;;;11.35;;
68455;SDS011;55437;55.046;38.838;2023-09-12T06:32:26;27.58;;;12.38;;
68455;SDS011;55437;55.046;38.838;2023-09-12T06:34:52;23.23;;;10.80;;
68455;SDS011;55437;55.046;38.838;2023-09-12T06:37:19;28.05;;;11.73;;
68455;SDS011;55437;55.046;38.838;2023-09-12T06:39:48;28.85;;;11.57;;
68455;SDS011;55437;55.046;38.838;2023-09-12T06:42:16;35.15;;;15.93;;
68455;SDS011;55437;55.046;38.838;2023-09-12T06:44:42;32.42;;;14.60;;
68455;SDS011;55437;55.046;38.838;2023-09-12T06:47:08;36.90;;;12.95;;
68455;SDS011;55437;55.046;38.838;2023-09-12T06:49:36;43.60;;;12.50;;
68455;SDS011;55437;55.046;38.838;2023-09-12T06:52:03;37.88;;;14.27;;
68455;SDS011;55437;55.046;38.838;2023-09-12T06:54:29;42.58;;;13.07;;
68455;SDS011;55437;55.046;38.838;2023-09-12T06:56:56;39.30;;;12.98;;
68455;SDS011;55437;55.046;38.838;2023-09-12T06:59:21;20.65;;;9.10;;
68455;SDS011;55437;55.046;38.838;2023-09-12T07:01:47;19.00;;;8.35;;
68455;SDS011;55437;55.046;38.838;2023-09-12T07:04:13;17.35;;;8.02;;
68455;SDS011;55437;55.046;38.838;2023-09-12T07:06:39;16.73;;;8.75;;
68455;SDS011;55437;55.046;38.838;2023-09-12T07:09:06;18.38;;;9.50;;
68455;SDS011;55437;55.046;38.838;2023-09-12T07:11:34;15.90;;;7.85;;
68455;SDS011;55437;55.046;38.838;2023-09-12T07:14:00;16.90;;;8.13;;
68455;SDS011;55437;55.046;38.838;2023-09-12T07:16:26;16.23;;;8.50;;
68455;SDS011;55437;55.046;38.838;2023-09-12T07:18:52;19.23;;;7.97;;
68455;SDS011;55437;55.046;38.838;2023-09-12T07:21:18;17.23;;;7.13;;
68455;SDS011;55437;55.046;38.838;2023-09-12T07:23:44;20.13;;;7.97;;
68455;SDS011;55437;55.046;38.838;2023-09-12T07:26:13;22.75;;;8.88;;
68455;SDS011;55437;55.046;38.838;2023-09-12T07:28:39;22.13;;;10.55;;
68455;SDS011;55437;55.046;38.838;2023-09-12T07:31:07;21.00;;;9.30;;
68455;SDS011;55437;55.046;38.838;2023-09-12T07:33:32;31.83;;;10.63;;
68455;SDS011;55437;55.046;38.838;2023-09-12T07:35:58;30.00;;;10.40;;
68455;SDS011;55437;55.046;38.838;2023-09-12T07:38:25;27.50;;;9.57;;
68455;SDS011;55437;55.046;38.838;2023-09-12T07:40:52;30.05;;;9.85;;
68455;SDS011;55437;55.046;38.838;2023-09-12T07:43:18;31.23;;;10.32;;
68455;SDS011;55437;55.046;38.838;2023-09-12T07:45:43;36.80;;;9.75;;
68455;SDS011;55437;55.046;38.838;2023-09-12T07:48:09;15.73;;;6.88;;
68455;SDS011;55437;55.046;38.838;2023-09-12T07:50:39;16.13;;;7.65;;
68455;SDS011;55437;55.046;38.838;2023-09-12T07:53:05;20.35;;;7.32;;
68455;SDS011;55437;55.046;38.838;2023-09-12T07:55:32;14.15;;;6.03;;
68455;SDS011;55437;55.046;38.838;2023-09-12T07:58:11;12.32;;;6.28;;
68455;SDS011;55437;55.046;38.838;2023-09-12T08:00:41;12.32;;;6.70;;
68455;SDS011;55437;55.046;38.838;2023-09-12T08:03:07;12.60;;;6.68;;
68455;SDS011;55437;55.046;38.838;2023-09-12T08:05:34;11.80;;;5.50;;
68455;SDS011;55437;55.046;38.838;2023-09-12T08:08:00;13.02;;;5.90;;
68455;SDS011;55437;55.046;38.838;2023-09-12T08:10:26;13.73;;;6.78;;
68455;SDS011;55437;55.046;38.838;2023-09-12T08:12:52;13.55;;;5.90;;
68455;SDS011;55437;55.046;38.838;2023-09-12T08:15:19;11.27;;;5.60;;
68455;SDS011;55437;55.046;38.838;2023-09-12T08:17:45;11.98;;;5.90;;
68455;SDS011;55437;55.046;38.838;2023-09-12T08:20:11;11.82;;;6.35;;
68455;SDS011;55437;55.046;38.838;2023-09-12T08:22:37;12.98;;;6.22;;
68455;SDS011;55437;55.046;38.838;2023-09-12T08:25:03;13.55;;;6.13;;
68455;SDS011;55437;55.046;38.838;2023-09-12T08:27:30;12.90;;;6.88;;
68455;SDS011;55437;55.046;38.838;2023-09-12T08:29:56;11.32;;;6.00;;
68455;SDS011;55437;55.046;38.838;2023-09-12T08:32:22;11.35;;;5.63;;
68455;SDS011;55437;55.046;38.838;2023-09-12T08:34:48;11.45;;;5.47;;
68455;SDS011;55437;55.046;38.838;2023-09-12T08:37:14;14.50;;;5.20;;
68455;SDS011;55437;55.046;38.838;2023-09-12T08:39:41;10.90;;;5.05;;
68455;SDS011;55437;55.046;38.838;2023-09-12T08:42:14;12.20;;;5.93;;
68455;SDS011;55437;55.046;38.838;2023-09-12T08:44:43;10.98;;;5.40;;
68455;SDS011;55437;55.046;38.838;2023-09-12T08:47:09;11.07;;;5.65;;
68455;SDS011;55437;55.046;38.838;2023-09-12T08:49:38;9.98;;;5.15;;
68455;SDS011;55437;55.046;38.838;2023-09-12T08:52:04;11.85;;;5.75;;
68455;SDS011;55437;55.046;38.838;2023-09-12T08:54:33;10.15;;;5.28;;
68455;SDS011;55437;55.046;38.838;2023-09-12T08:59:33;12.43;;;6.03;;
68455;SDS011;55437;55.046;38.838;2023-09-12T09:02:00;13.88;;;6.20;;
68455;SDS011;55437;55.046;38.838;2023-09-12T09:04:29;10.02;;;5.47;;
68455;SDS011;55437;55.046;38.838;2023-09-12T09:06:57;11.13;;;5.43;;
68455;SDS011;55437;55.046;38.838;2023-09-12T09:09:25;12.98;;;5.60;;
68455;SDS011;55437;55.046;38.838;2023-09-12T09:11:52;14.68;;;6.28;;
68455;SDS011;55437;55.046;38.838;2023-09-12T09:14:18;10.68;;;6.03;;
68455;SDS011;55437;55.046;38.838;2023-09-12T09:16:44;13.38;;;5.70;;
68455;SDS011;55437;55.046;38.838;2023-09-12T09:19:10;11.20;;;6.00;;
68455;SDS011;55437;55.046;38.838;2023-09-12T09:21:36;14.10;;;6.38;;
68455;SDS011;55437;55.046;38.838;2023-09-12T09:24:06;10.48;;;5.63;;
68455;SDS011;55437;55.046;38.838;2023-09-12T09:26:46;11.65;;;5.25;;
68455;SDS011;55437;55.046;38.838;2023-09-12T09:29:15;10.38;;;5.13;;
68455;SDS011;55437;55.046;38.838;2023-09-12T09:31:42;10.88;;;5.70;;
68455;SDS011;55437;55.046;38.838;2023-09-12T09:34:10;12.95;;;6.38;;
68455;SDS011;55437;55.046;38.838;2023-09-12T09:36:40;12.55;;;5.88;;
68455;SDS011;55437;55.046;38.838;2023-09-12T09:39:07;11.32;;;4.97;;
68455;SDS011;55437;55.046;38.838;2023-09-12T09:41:34;12.02;;;5.10;;
68455;SDS011;55437;55.046;38.838;2023-09-12T09:44:00;10.35;;;4.65;;
68455;SDS011;55437;55.046;38.838;2023-09-12T09:46:26;13.18;;;5.45;;
68455;SDS011;55437;55.046;38.838;2023-09-12T09:48:52;8.25;;;3.95;;
68455;SDS011;55437;55.046;38.838;2023-09-12T09:51:18;9.07;;;4.25;;
68455;SDS011;55437;55.046;38.838;2023-09-12T09:53:44;10.02;;;4.95;;
68455;SDS011;55437;55.046;38.838;2023-09-12T09:56:11;11.80;;;5.97;;
68455;SDS011;55437;55.046;38.838;2023-09-12T09:58:51;11.35;;;4.32;;
68455;SDS011;55437;55.046;38.838;2023-09-12T10:01:26;9.75;;;4.10;;
68455;SDS011;55437;55.046;38.838;2023-09-12T10:03:58;9.88;;;5.07;;
68455;SDS011;55437;55.046;38.838;2023-09-12T10:06:26;8.85;;;4.35;;
68455;SDS011;55437;55.046;38.838;2023-09-12T10:08:53;8.85;;;4.10;;
68455;SDS011;55437;55.046;38.838;2023-09-12T10:11:22;10.13;;;4.28;;
68455;SDS011;55437;55.046;38.838;2023-09-12T10:13:52;16.40;;;7.53;;
68455;SDS011;55437;55.046;38.838;2023-09-12T10:16:23;14.50;;;5.57;;
68455;SDS011;55437;55.046;38.838;2023-09-12T10:18:58;12.73;;;3.83;;
68455;SDS011;55437;55.046;38.838;2023-09-12T10:21:35;12.07;;;5.65;;
68455;SDS011;55437;55.046;38.838;2023-09-12T10:24:02;11.05;;;4.65;;
68455;SDS011;55437;55.046;38.838;2023-09-12T10:26:30;7.85;;;3.65;;
68455;SDS011;55437;55.046;38.838;2023-09-12T10:28:57;9.90;;;4.35;;
68455;SDS011;55437;55.046;38.838;2023-09-12T10:31:24;8.30;;;3.28;;
68455;SDS011;55437;55.046;38.838;2023-09-12T10:33:52;11.00;;;3.85;;
68455;SDS011;55437;55.046;38.838;2023-09-12T10:36:19;11.75;;;6.45;;
68455;SDS011;55437;55.046;38.838;2023-09-12T10:38:46;8.38;;;3.80;;
68455;SDS011;55437;55.046;38.838;2023-09-12T10:41:14;12.80;;;5.75;;
68455;SDS011;55437;55.046;38.838;2023-09-12T10:43:42;11.73;;;3.60;;
68455;SDS011;55437;55.046;38.838;2023-09-12T10:46:12;9.05;;;4.38;;
68455;SDS011;55437;55.046;38.838;2023-09-12T10:48:38;10.73;;;4.80;;
68455;SDS011;55437;55.046;38.838;2023-09-12T10:51:06;9.80;;;4.07;;
68455;SDS011;55437;55.046;38.838;2023-09-12T10:53:33;8.65;;;4.00;;
68455;SDS011;55437;55.046;38.838;2023-09-12T10:56:13;9.35;;;4.20;;
68455;SDS011;55437;55.046;38.838;2023-09-12T11:01:36;7.97;;;3.13;;
68455;SDS011;55437;55.046;38.838;2023-09-12T11:06:49;8.30;;;3.80;;
68455;SDS011;55437;55.046;38.838;2023-09-12T11:09:17;9.68;;;4.00;;
68455;SDS011;55437;55.046;38.838;2023-09-12T11:11:46;9.30;;;3.30;;
68455;SDS011;55437;55.046;38.838;2023-09-12T11:14:13;8.02;;;3.72;;
68455;SDS011;55437;55.046;38.838;2023-09-12T11:16:43;13.15;;;5.63;;
68455;SDS011;55437;55.046;38.838;2023-09-12T11:19:19;9.35;;;4.35;;
68455;SDS011;55437;55.046;38.838;2023-09-12T11:21:49;11.15;;;3.97;;
68455;SDS011;55437;55.046;38.838;2023-09-12T11:24:16;9.18;;;4.97;;
68455;SDS011;55437;55.046;38.838;2023-09-12T11:29:26;8.20;;;3.40;;
68455;SDS011;55437;55.046;38.838;2023-09-12T11:32:01;8.13;;;3.75;;
68455;SDS011;55437;55.046;38.838;2023-09-12T11:34:29;8.95;;;4.15;;
68455;SDS011;55437;55.046;38.838;2023-09-12T11:37:25;8.80;;;3.92;;
68455;SDS011;55437;55.046;38.838;2023-09-12T11:39:53;9.05;;;4.40;;
68455;SDS011;55437;55.046;38.838;2023-09-12T11:42:19;7.30;;;3.35;;
68455;SDS011;55437;55.046;38.838;2023-09-12T11:44:49;11.10;;;4.57;;
68455;SDS011;55437;55.046;38.838;2023-09-12T11:47:16;7.57;;;3.47;;
68455;SDS011;55437;55.046;38.838;2023-09-12T11:49:42;8.80;;;3.60;;
68455;SDS011;55437;55.046;38.838;2023-09-12T11:52:09;9.00;;;4.63;;
68455;SDS011;55437;55.046;38.838;2023-09-12T11:54:40;9.88;;;4.28;;
68455;SDS011;55437;55.046;38.838;2023-09-12T11:57:09;9.60;;;4.07;;
68455;SDS011;55437;55.046;38.838;2023-09-12T11:59:38;10.48;;;4.18;;
68455;SDS011;55437;55.046;38.838;2023-09-12T12:02:12;7.95;;;3.60;;
68455;SDS011;55437;55.046;38.838;2023-09-12T12:04:39;8.43;;;3.88;;
68455;SDS011;55437;55.046;38.838;2023-09-12T12:07:05;8.00;;;4.43;;
68455;SDS011;55437;55.046;38.838;2023-09-12T12:09:32;8.82;;;3.58;;
68455;SDS011;55437;55.046;38.838;2023-09-12T12:12:08;10.10;;;4.18;;
68455;SDS011;55437;55.046;38.838;2023-09-12T12:14:44;8.88;;;4.75;;
68455;SDS011;55437;55.046;38.838;2023-09-12T12:17:11;9.40;;;3.90;;
68455;SDS011;55437;55.046;38.838;2023-09-12T12:19:38;9.25;;;4.72;;
68455;SDS011;55437;55.046;38.838;2023-09-12T12:22:05;8.68;;;4.15;;
68455;SDS011;55437;55.046;38.838;2023-09-12T12:24:36;9.10;;;4.28;;
68455;SDS011;55437;55.046;38.838;2023-09-12T12:27:04;9.02;;;4.05;;
68455;SDS011;55437;55.046;38.838;2023-09-12T12:29:30;9.98;;;4.30;;
68455;SDS011;55437;55.046;38.838;2023-09-12T12:34:49;8.05;;;3.88;;
68455;SDS011;55437;55.046;38.838;2023-09-12T12:37:15;8.73;;;4.00;;
68455;SDS011;55437;55.046;38.838;2023-09-12T12:39:44;8.63;;;3.78;;
68455;SDS011;55437;55.046;38.838;2023-09-12T12:42:12;9.68;;;4.57;;
68455;SDS011;55437;55.046;38.838;2023-09-12T12:44:37;9.05;;;3.80;;
68455;SDS011;55437;55.046;38.838;2023-09-12T12:47:07;10.10;;;3.92;;
68455;SDS011;55437;55.046;38.838;2023-09-12T12:49:36;8.30;;;3.90;;
68455;SDS011;55437;55.046;38.838;2023-09-12T12:54:31;9.25;;;3.90;;
68455;SDS011;55437;55.046;38.838;2023-09-12T12:57:00;8.45;;;3.70;;
68455;SDS011;55437;55.046;38.838;2023-09-12T12:59:28;10.40;;;4.05;;
68455;SDS011;55437;55.046;38.838;2023-09-12T13:01:55;8.38;;;4.07;;
68455;SDS011;55437;55.046;38.838;2023-09-12T13:04:23;10.13;;;3.92;;
68455;SDS011;55437;55.046;38.838;2023-09-12T13:06:49;10.23;;;4.03;;
68455;SDS011;55437;55.046;38.838;2023-09-12T13:09:15;8.50;;;4.20;;
68455;SDS011;55437;55.046;38.838;2023-09-12T13:11:42;14.95;;;3.92;;
68455;SDS011;55437;55.046;38.838;2023-09-12T13:14:08;9.65;;;4.45;;
68455;SDS011;55437;55.046;38.838;2023-09-12T13:16:37;10.45;;;4.22;;
68455;SDS011;55437;55.046;38.838;2023-09-12T13:19:04;10.07;;;4.35;;
68455;SDS011;55437;55.046;38.838;2023-09-12T13:21:30;10.70;;;5.25;;
68455;SDS011;55437;55.046;38.838;2023-09-12T13:23:58;9.20;;;3.95;;
68455;SDS011;55437;55.046;38.838;2023-09-12T13:26:24;10.07;;;5.10;;
68455;SDS011;55437;55.046;38.838;2023-09-12T13:28:51;9.57;;;4.28;;
68455;SDS011;55437;55.046;38.838;2023-09-12T13:31:17;8.52;;;3.80;;
68455;SDS011;55437;55.046;38.838;2023-09-12T13:33:42;12.43;;;5.55;;
68455;SDS011;55437;55.046;38.838;2023-09-12T13:36:08;8.77;;;4.00;;
68455;SDS011;55437;55.046;38.838;2023-09-12T13:38:34;11.60;;;4.28;;
68455;SDS011;55437;55.046;38.838;2023-09-12T13:41:00;9.77;;;4.18;;
68455;SDS011;55437;55.046;38.838;2023-09-12T13:43:26;8.45;;;4.03;;
68455;SDS011;55437;55.046;38.838;2023-09-12T13:45:53;10.93;;;4.40;;
68455;SDS011;55437;55.046;38.838;2023-09-12T13:48:20;9.40;;;3.78;;
68455;SDS011;55437;55.046;38.838;2023-09-12T13:51:05;9.38;;;4.05;;
68455;SDS011;55437;55.046;38.838;2023-09-12T13:53:31;11.55;;;4.97;;
68455;SDS011;55437;55.046;38.838;2023-09-12T13:55:56;9.13;;;4.68;;
68455;SDS011;55437;55.046;38.838;2023-09-12T13:58:23;8.48;;;4.05;;
68455;SDS011;55437;55.046;38.838;2023-09-12T14:00:50;8.10;;;3.95;;
68455;SDS011;55437;55.046;38.838;2023-09-12T14:03:16;7.97;;;3.63;;
68455;SDS011;55437;55.046;38.838;2023-09-12T14:05:42;8.52;;;3.88;;
68455;SDS011;55437;55.046;38.838;2023-09-12T14:08:11;7.78;;;3.83;;
68455;SDS011;55437;55.046;38.838;2023-09-12T14:10:37;9.65;;;4.95;;
68455;SDS011;55437;55.046;38.838;2023-09-12T14:13:03;8.77;;;4.75;;
68455;SDS011;55437;55.046;38.838;2023-09-12T14:15:48;9.70;;;4.10;;
68455;SDS011;55437;55.046;38.838;2023-09-12T14:18:15;10.10;;;4.30;;
68455;SDS011;55437;55.046;38.838;2023-09-12T14:20:42;8.82;;;4.18;;
68455;SDS011;55437;55.046;38.838;2023-09-12T14:23:08;10.40;;;5.18;;
68455;SDS011;55437;55.046;38.838;2023-09-12T14:25:34;9.23;;;4.03;;
68455;SDS011;55437;55.046;38.838;2023-09-12T14:28:00;8.77;;;4.28;;
68455;SDS011;55437;55.046;38.838;2023-09-12T14:30:26;9.73;;;4.32;;
68455;SDS011;55437;55.046;38.838;2023-09-12T14:32:59;8.35;;;3.97;;
68455;SDS011;55437;55.046;38.838;2023-09-12T14:35:25;12.20;;;4.47;;
68455;SDS011;55437;55.046;38.838;2023-09-12T14:37:51;9.15;;;4.63;;
68455;SDS011;55437;55.046;38.838;2023-09-12T14:40:16;9.15;;;4.57;;
68455;SDS011;55437;55.046;38.838;2023-09-12T14:42:42;9.65;;;4.57;;
68455;SDS011;55437;55.046;38.838;2023-09-12T14:45:09;11.05;;;4.40;;